createdAt,value
2022-10-22T00:02:07.279Z,4.90
2022-10-22T00:08:01.170Z,5.20
2022-10-22T00:14:29.877Z,4.90
2022-10-22T00:20:57.182Z,4.60
2022-10-22T00:27:21.188Z,5.20
2022-10-22T00:33:47.559Z,4.90
2022-10-22T00:40:18.373Z,4.90
2022-10-22T00:46:42.546Z,4.50
2022-10-22T00:53:07.217Z,4.80
2022-10-22T00:59:38.205Z,5.20
2022-10-22T01:06:04.443Z,4.70
2022-10-22T01:12:33.751Z,4.90
2022-10-22T01:19:07.115Z,5.20
2022-10-22T01:25:28.722Z,5.00
2022-10-22T01:32:00.610Z,4.80
2022-10-22T01:38:28.026Z,4.60
2022-10-22T01:51:07.571Z,5.20
2022-10-22T01:57:35.022Z,4.90
2022-10-22T02:04:11.787Z,4.70
2022-10-22T02:10:44.343Z,4.90
2022-10-22T02:17:18.856Z,5.00
2022-10-22T02:23:49.322Z,4.50
2022-10-22T02:30:12.182Z,5.20
2022-10-22T02:36:49.721Z,4.80
2022-10-22T02:43:19.253Z,4.90
2022-10-22T02:49:23.486Z,5.20
2022-10-22T02:55:30.653Z,5.00
2022-10-22T03:01:38.490Z,4.80
2022-10-22T03:08:03.548Z,4.90
2022-10-22T03:13:55.539Z,4.70
2022-10-22T03:20:13.366Z,4.70
2022-10-22T03:26:38.899Z,4.70
2022-10-22T03:32:56.161Z,5.00
2022-10-22T03:39:19.514Z,5.00
2022-10-22T03:45:43.009Z,4.70
2022-10-22T03:51:44.314Z,5.20
2022-10-22T03:58:22.993Z,5.10
2022-10-22T04:04:23.774Z,4.70
2022-10-22T04:17:33.031Z,4.50
2022-10-22T04:23:58.269Z,4.60
2022-10-22T04:30:36.252Z,5.00
2022-10-22T04:37:19.122Z,4.40
2022-10-22T04:43:39.259Z,5.00
2022-10-22T04:50:03.783Z,4.30
2022-10-22T04:56:58.725Z,5.00
2022-10-22T05:03:25.050Z,4.50
2022-10-22T05:09:49.797Z,4.60
2022-10-22T05:16:16.652Z,4.50
2022-10-22T05:23:14.982Z,4.50
2022-10-22T05:36:45.603Z,4.40
2022-10-22T05:43:12.121Z,4.10
2022-10-22T05:49:43.202Z,4.50
2022-10-22T05:56:07.508Z,4.30
2022-10-22T06:02:33.372Z,4.20
2022-10-22T06:08:57.731Z,4.40
2022-10-22T06:15:24.022Z,4.00
2022-10-22T06:21:48.703Z,4.10
2022-10-22T06:28:18.081Z,3.70
2022-10-22T06:35:05.439Z,4.20
2022-10-22T06:48:14.278Z,4.10
2022-10-22T06:54:38.605Z,4.30
2022-10-22T07:01:02.982Z,4.20
2022-10-22T07:07:34.509Z,4.30
2022-10-22T07:14:01.477Z,4.00
2022-10-22T07:20:25.839Z,4.50
2022-10-22T07:33:20.679Z,4.20
2022-10-22T07:39:14.891Z,4.30
2022-10-22T07:45:29.485Z,4.20
2022-10-22T07:58:35.154Z,5.00
2022-10-22T08:05:01.962Z,4.40
2022-10-22T08:11:28.310Z,4.50
2022-10-22T08:17:52.220Z,4.30
2022-10-22T08:24:16.247Z,4.30
2022-10-22T08:30:55.353Z,4.30
2022-10-22T08:37:19.563Z,4.20
2022-10-22T08:43:47.667Z,4.50
2022-10-22T08:50:24.259Z,3.80
2022-10-22T08:56:32.625Z,4.60
2022-10-22T09:02:57.241Z,5.10
2022-10-22T09:09:02.945Z,5.10
2022-10-22T09:15:47.343Z,4.50
2022-10-22T09:22:24.720Z,4.60
2022-10-22T09:28:41.553Z,4.80
2022-10-22T09:42:04.032Z,4.20
2022-10-22T09:48:28.570Z,4.40
2022-10-22T09:54:58.545Z,3.90
2022-10-22T10:01:24.256Z,3.80
2022-10-22T10:07:48.444Z,3.90
2022-10-22T10:14:25.601Z,3.50
2022-10-22T10:20:50.205Z,3.40
2022-10-22T10:27:17.533Z,3.80
2022-10-22T10:34:09.055Z,3.40
2022-10-22T10:40:58.025Z,4.00
2022-10-22T10:47:40.742Z,3.60
2022-10-22T10:54:15.370Z,4.30
2022-10-22T11:00:25.564Z,3.40
2022-10-22T11:13:47.720Z,4.50
2022-10-22T11:19:55.718Z,5.50
2022-10-22T11:33:41.383Z,6.40
2022-10-22T11:40:16.095Z,5.30
2022-10-22T11:46:23.663Z,6.00
2022-10-22T11:52:59.102Z,5.60
2022-10-22T11:59:07.615Z,5.50
2022-10-22T12:19:27.684Z,4.40
2022-10-22T12:25:59.179Z,4.80
2022-10-22T12:32:31.033Z,4.90
2022-10-22T12:38:57.890Z,4.30
2022-10-22T12:45:21.832Z,4.20
2022-10-22T12:51:48.842Z,4.10
2022-10-22T12:58:14.050Z,4.10
2022-10-22T13:04:46.921Z,4.10
2022-10-22T13:11:20.088Z,4.00
2022-10-22T13:17:52.619Z,4.60
2022-10-22T13:24:20.032Z,3.80
2022-10-22T13:30:49.814Z,5.20
2022-10-22T13:37:21.267Z,3.90
2022-10-22T13:43:48.018Z,3.50
2022-10-22T13:50:18.292Z,3.80
2022-10-22T13:56:35.889Z,3.40
2022-10-22T14:03:09.848Z,3.30
2022-10-22T14:09:07.521Z,3.50
2022-10-22T14:15:31.907Z,3.40
2022-10-22T14:21:40.410Z,3.30
2022-10-22T14:28:19.242Z,3.70
2022-10-22T14:34:44.096Z,3.40
2022-10-22T14:40:41.035Z,3.40
2022-10-22T14:47:22.005Z,3.60
2022-10-22T14:53:49.987Z,3.40
2022-10-22T15:00:16.614Z,3.20
2022-10-22T15:06:35.508Z,3.30
2022-10-22T15:13:01.118Z,3.80
2022-10-22T15:19:23.897Z,3.60
2022-10-22T15:25:50.514Z,3.20
2022-10-22T15:32:27.522Z,3.90
2022-10-22T15:38:47.107Z,3.70
2022-10-22T15:45:11.326Z,3.50
2022-10-22T15:51:36.997Z,4.60
2022-10-22T15:57:57.189Z,4.40
2022-10-22T16:04:25.291Z,4.50
2022-10-22T16:10:50.591Z,5.80
2022-10-22T16:17:15.536Z,8.50
2022-10-22T16:23:39.732Z,9.50
2022-10-22T16:30:06.062Z,6.50
2022-10-22T16:36:30.441Z,6.50
2022-10-22T16:42:53.467Z,6.20
2022-10-22T16:49:17.773Z,5.90
2022-10-22T16:55:36.218Z,5.90
2022-10-22T17:02:00.442Z,5.60
2022-10-22T17:08:25.636Z,5.70
2022-10-22T17:14:45.214Z,6.20
2022-10-22T17:21:10.965Z,5.60
2022-10-22T17:27:30.113Z,6.00
2022-10-22T17:33:54.407Z,5.20
2022-10-22T17:40:18.600Z,5.80
2022-10-22T17:46:44.075Z,5.80
2022-10-22T17:53:10.194Z,5.50
2022-10-22T17:59:24.566Z,5.80
2022-10-22T18:05:49.136Z,5.40
2022-10-22T18:12:13.449Z,5.70
2022-10-22T18:18:37.959Z,5.20
2022-10-22T18:25:01.968Z,4.60
2022-10-22T18:31:26.360Z,4.80
2022-10-22T18:37:51.979Z,5.50
2022-10-22T18:44:18.253Z,5.30
2022-10-22T18:50:42.721Z,5.20
2022-10-22T18:57:06.965Z,5.80
2022-10-22T19:03:32.657Z,5.60
2022-10-22T19:09:56.957Z,5.30
2022-10-22T19:16:23.378Z,5.60
2022-10-22T19:22:47.738Z,6.20
2022-10-22T19:29:12.122Z,5.60
2022-10-22T19:35:12.094Z,5.90
2022-10-22T19:41:37.718Z,5.40
2022-10-22T19:48:04.522Z,5.80
2022-10-22T19:54:23.056Z,6.10
2022-10-22T20:01:09.333Z,6.30
2022-10-22T20:07:33.903Z,5.80
2022-10-22T20:14:02.614Z,5.60
2022-10-22T20:20:28.482Z,5.90
2022-10-22T20:27:04.196Z,6.80
2022-10-22T20:33:29.519Z,6.10
2022-10-22T20:39:45.038Z,6.50
2022-10-22T20:46:09.012Z,6.70
2022-10-22T20:52:33.398Z,6.50
2022-10-22T20:58:57.398Z,6.20
2022-10-22T21:05:22.766Z,6.50
2022-10-22T21:11:47.723Z,6.70
2022-10-22T21:18:13.618Z,6.40
2022-10-22T21:24:51.826Z,7.20
2022-10-22T21:31:17.442Z,5.90
2022-10-22T21:38:15.722Z,6.30
2022-10-22T21:44:47.004Z,6.20
2022-10-22T21:51:15.253Z,5.60
2022-10-22T21:57:46.429Z,6.20
2022-10-22T22:04:19.800Z,5.70
2022-10-22T22:10:48.093Z,5.50
2022-10-22T22:17:02.440Z,5.30
2022-10-22T22:23:28.406Z,5.50
2022-10-22T22:29:45.602Z,5.90
2022-10-22T22:36:08.771Z,5.30
2022-10-22T22:42:25.972Z,5.70
2022-10-22T22:48:30.530Z,4.80
2022-10-22T22:54:59.699Z,5.30
2022-10-22T23:01:06.790Z,5.00
2022-10-22T23:07:16.512Z,4.90
2022-10-22T23:13:36.418Z,5.00
2022-10-22T23:26:32.324Z,5.00
2022-10-22T23:32:27.401Z,5.00
2022-10-22T23:38:26.421Z,4.70
2022-10-22T23:51:47.739Z,4.70
